sensor_id;sensor_type;location;lat;lon;timestamp;pressure;altitude;pressure_sealevel;temperature;humidity
55932;BME280;41837;55.700;37.984;2023-02-19T00:01:28;98648.16;;;-9.92;100.00
55932;BME280;41837;55.700;37.984;2023-02-19T00:04:16;98649.00;;;-9.92;100.00
55932;BME280;41837;55.700;37.984;2023-02-19T00:06:44;98650.72;;;-9.89;100.00
55932;BME280;41837;55.700;37.984;2023-02-19T00:09:12;98642.31;;;-9.88;100.00
55932;BME280;41837;55.700;37.984;2023-02-19T00:11:39;98629.50;;;-9.98;100.00
55932;BME280;41837;55.700;37.984;2023-02-19T00:14:06;98637.09;;;-9.98;100.00
55932;BME280;41837;55.700;37.984;2023-02-19T00:16:37;98623.56;;;-9.98;100.00
55932;BME280;41837;55.700;37.984;2023-02-19T00:19:07;98626.13;;;-9.97;100.00
55932;BME280;41837;55.700;37.984;2023-02-19T00:21:36;98622.78;;;-9.96;100.00
55932;BME280;41837;55.700;37.984;2023-02-19T00:24:04;98620.25;;;-9.96;100.00
55932;BME280;41837;55.700;37.984;2023-02-19T00:26:31;98628.69;;;-9.95;100.00
55932;BME280;41837;55.700;37.984;2023-02-19T00:28:59;98616.09;;;-9.94;100.00
55932;BME280;41837;55.700;37.984;2023-02-19T00:31:33;98614.38;;;-9.95;100.00
55932;BME280;41837;55.700;37.984;2023-02-19T00:34:03;98614.41;;;-9.93;100.00
55932;BME280;41837;55.700;37.984;2023-02-19T00:36:30;98607.72;;;-9.91;100.00
55932;BME280;41837;55.700;37.984;2023-02-19T00:38:57;98600.84;;;-9.97;100.00
55932;BME280;41837;55.700;37.984;2023-02-19T00:41:24;98602.63;;;-9.92;100.00
55932;BME280;41837;55.700;37.984;2023-02-19T00:43:52;98602.72;;;-9.86;100.00
55932;BME280;41837;55.700;37.984;2023-02-19T00:46:44;98603.50;;;-9.90;100.00
55932;BME280;41837;55.700;37.984;2023-02-19T00:49:17;98604.34;;;-9.90;100.00
55932;BME280;41837;55.700;37.984;2023-02-19T00:51:44;98602.56;;;-9.96;100.00
55932;BME280;41837;55.700;37.984;2023-02-19T00:54:10;98608.31;;;-10.01;100.00
55932;BME280;41837;55.700;37.984;2023-02-19T00:56:38;98595.00;;;-9.94;100.00
55932;BME280;41837;55.700;37.984;2023-02-19T00:59:04;98592.44;;;-9.96;100.00
55932;BME280;41837;55.700;37.984;2023-02-19T01:01:30;98586.31;;;-10.07;100.00
55932;BME280;41837;55.700;37.984;2023-02-19T01:03:57;98583.78;;;-10.07;100.00
55932;BME280;41837;55.700;37.984;2023-02-19T01:06:23;98590.63;;;-10.01;100.00
55932;BME280;41837;55.700;37.984;2023-02-19T01:08:49;98591.50;;;-10.01;100.00
55932;BME280;41837;55.700;37.984;2023-02-19T01:11:16;98588.09;;;-10.03;100.00
55932;BME280;41837;55.700;37.984;2023-02-19T01:13:43;98590.63;;;-10.03;100.00
55932;BME280;41837;55.700;37.984;2023-02-19T01:16:16;98589.84;;;-9.99;100.00
55932;BME280;41837;55.700;37.984;2023-02-19T01:18:43;98580.53;;;-10.03;100.00
55932;BME280;41837;55.700;37.984;2023-02-19T01:21:15;98589.81;;;-10.00;100.00
55932;BME280;41837;55.700;37.984;2023-02-19T01:23:42;98569.50;;;-10.05;100.00
55932;BME280;41837;55.700;37.984;2023-02-19T01:26:13;98570.34;;;-10.06;100.00
55932;BME280;41837;55.700;37.984;2023-02-19T01:28:39;98553.28;;;-10.16;100.00
55932;BME280;41837;55.700;37.984;2023-02-19T01:31:08;98572.03;;;-10.05;100.00
55932;BME280;41837;55.700;37.984;2023-02-19T01:33:38;98569.44;;;-10.09;100.00
55932;BME280;41837;55.700;37.984;2023-02-19T01:36:04;98560.94;;;-10.12;100.00
55932;BME280;41837;55.700;37.984;2023-02-19T01:38:31;98561.88;;;-10.08;100.00
55932;BME280;41837;55.700;37.984;2023-02-19T01:41:00;98558.41;;;-10.13;100.00
55932;BME280;41837;55.700;37.984;2023-02-19T01:43:27;98549.03;;;-10.17;100.00
55932;BME280;41837;55.700;37.984;2023-02-19T01:45:54;98554.97;;;-10.15;100.00
55932;BME280;41837;55.700;37.984;2023-02-19T01:48:25;98550.63;;;-10.22;100.00
55932;BME280;41837;55.700;37.984;2023-02-19T01:51:16;98554.09;;;-10.17;100.00
55932;BME280;41837;55.700;37.984;2023-02-19T01:53:44;98556.56;;;-10.20;100.00
55932;BME280;41837;55.700;37.984;2023-02-19T01:56:12;98537.84;;;-10.28;100.00
55932;BME280;41837;55.700;37.984;2023-02-19T01:58:40;98552.38;;;-10.18;100.00
55932;BME280;41837;55.700;37.984;2023-02-19T02:01:07;98555.75;;;-10.19;100.00
55932;BME280;41837;55.700;37.984;2023-02-19T02:03:36;98548.09;;;-10.22;100.00
55932;BME280;41837;55.700;37.984;2023-02-19T02:08:32;98539.56;;;-10.27;100.00
55932;BME280;41837;55.700;37.984;2023-02-19T02:11:19;98538.00;;;-10.22;100.00
55932;BME280;41837;55.700;37.984;2023-02-19T02:13:47;98552.34;;;-10.21;100.00
55932;BME280;41837;55.700;37.984;2023-02-19T02:18:57;98548.91;;;-10.23;100.00
55932;BME280;41837;55.700;37.984;2023-02-19T02:27:35;98542.13;;;-10.26;100.00
55932;BME280;41837;55.700;37.984;2023-02-19T02:30:30;98542.09;;;-10.27;100.00
55932;BME280;41837;55.700;37.984;2023-02-19T02:36:03;98527.72;;;-10.33;100.00
55932;BME280;41837;55.700;37.984;2023-02-19T02:38:35;98539.56;;;-10.27;100.00
55932;BME280;41837;55.700;37.984;2023-02-19T02:41:03;98535.34;;;-10.27;100.00
55932;BME280;41837;55.700;37.984;2023-02-19T02:43:30;98538.66;;;-10.31;100.00
55932;BME280;41837;55.700;37.984;2023-02-19T02:45:57;98529.47;;;-10.27;100.00
55932;BME280;41837;55.700;37.984;2023-02-19T02:51:24;98533.69;;;-10.28;100.00
55932;BME280;41837;55.700;37.984;2023-02-19T02:54:15;98533.69;;;-10.28;100.00
55932;BME280;41837;55.700;37.984;2023-02-19T02:57:06;98532.88;;;-10.25;100.00
55932;BME280;41837;55.700;37.984;2023-02-19T02:59:40;98529.53;;;-10.24;100.00
55932;BME280;41837;55.700;37.984;2023-02-19T03:07:57;98512.50;;;-10.35;100.00
55932;BME280;41837;55.700;37.984;2023-02-19T03:10:35;98525.22;;;-10.30;100.00
55932;BME280;41837;55.700;37.984;2023-02-19T03:13:07;98514.28;;;-10.29;100.00
55932;BME280;41837;55.700;37.984;2023-02-19T03:15:57;98509.22;;;-10.29;100.00
55932;BME280;41837;55.700;37.984;2023-02-19T03:18:48;98511.81;;;-10.26;100.00
55932;BME280;41837;55.700;37.984;2023-02-19T03:21:35;98498.22;;;-10.31;100.00
55932;BME280;41837;55.700;37.984;2023-02-19T03:24:08;98503.41;;;-10.25;100.00
55932;BME280;41837;55.700;37.984;2023-02-19T03:26:56;98500.81;;;-10.28;100.00
55932;BME280;41837;55.700;37.984;2023-02-19T03:29:29;98499.13;;;-10.27;100.00
55932;BME280;41837;55.700;37.984;2023-02-19T03:32:07;98500.78;;;-10.29;100.00
55932;BME280;41837;55.700;37.984;2023-02-19T03:34:54;98499.94;;;-10.32;100.00
55932;BME280;41837;55.700;37.984;2023-02-19T03:37:36;98485.59;;;-10.33;100.00
55932;BME280;41837;55.700;37.984;2023-02-19T03:40:05;98476.31;;;-10.34;100.00
55932;BME280;41837;55.700;37.984;2023-02-19T03:42:42;98495.78;;;-10.28;100.00
55932;BME280;41837;55.700;37.984;2023-02-19T03:48:02;98488.16;;;-10.29;100.00
55932;BME280;41837;55.700;37.984;2023-02-19T03:50:42;98499.13;;;-10.27;100.00
55932;BME280;41837;55.700;37.984;2023-02-19T03:56:15;98494.09;;;-10.27;100.00
55932;BME280;41837;55.700;37.984;2023-02-19T04:04:36;98478.84;;;-10.31;100.00
55932;BME280;41837;55.700;37.984;2023-02-19T04:07:07;98478.16;;;-10.25;100.00
55932;BME280;41837;55.700;37.984;2023-02-19T04:09:39;98475.53;;;-10.29;100.00
55932;BME280;41837;55.700;37.984;2023-02-19T04:12:12;98471.25;;;-10.34;100.00
55932;BME280;41837;55.700;37.984;2023-02-19T04:14:53;98474.69;;;-10.28;100.00
55932;BME280;41837;55.700;37.984;2023-02-19T04:17:30;98470.53;;;-10.26;100.00
55932;BME280;41837;55.700;37.984;2023-02-19T04:20:00;98467.13;;;-10.27;100.00
55932;BME280;41837;55.700;37.984;2023-02-19T04:22:30;98475.50;;;-10.33;100.00
55932;BME280;41837;55.700;37.984;2023-02-19T04:24:56;98490.75;;;-10.26;100.00
55932;BME280;41837;55.700;37.984;2023-02-19T04:27:22;98483.19;;;-10.25;100.00
55932;BME280;41837;55.700;37.984;2023-02-19T04:29:48;98473.03;;;-10.28;100.00
55932;BME280;41837;55.700;37.984;2023-02-19T04:32:14;98484.09;;;-10.21;100.00
55932;BME280;41837;55.700;37.984;2023-02-19T04:34:40;98482.41;;;-10.22;100.00
55932;BME280;41837;55.700;37.984;2023-02-19T04:37:06;98477.38;;;-10.21;100.00
55932;BME280;41837;55.700;37.984;2023-02-19T04:39:33;98462.88;;;-10.29;100.00
55932;BME280;41837;55.700;37.984;2023-02-19T04:41:59;98470.56;;;-10.25;100.00
55932;BME280;41837;55.700;37.984;2023-02-19T04:44:26;98463.84;;;-10.24;100.00
55932;BME280;41837;55.700;37.984;2023-02-19T04:46:53;98466.31;;;-10.26;100.00
55932;BME280;41837;55.700;37.984;2023-02-19T04:49:19;98465.53;;;-10.22;100.00
55932;BME280;41837;55.700;37.984;2023-02-19T04:51:45;98463.94;;;-10.18;100.00
55932;BME280;41837;55.700;37.984;2023-02-19T04:54:11;98458.00;;;-10.20;100.00
55932;BME280;41837;55.700;37.984;2023-02-19T04:56:38;98455.53;;;-10.17;100.00
55932;BME280;41837;55.700;37.984;2023-02-19T04:59:04;98445.31;;;-10.23;100.00
55932;BME280;41837;55.700;37.984;2023-02-19T05:01:30;98456.28;;;-10.23;100.00
55932;BME280;41837;55.700;37.984;2023-02-19T05:03:57;98446.88;;;-10.30;100.00
55932;BME280;41837;55.700;37.984;2023-02-19T05:06:23;98460.53;;;-10.20;100.00
55932;BME280;41837;55.700;37.984;2023-02-19T05:08:49;98458.84;;;-10.21;100.00
55932;BME280;41837;55.700;37.984;2023-02-19T05:11:16;98454.63;;;-10.21;100.00
55932;BME280;41837;55.700;37.984;2023-02-19T05:13:42;98457.19;;;-10.19;100.00
55932;BME280;41837;55.700;37.984;2023-02-19T05:16:13;98454.75;;;-10.15;100.00
55932;BME280;41837;55.700;37.984;2023-02-19T05:18:42;98448.84;;;-10.14;100.00
55932;BME280;41837;55.700;37.984;2023-02-19T05:21:10;98452.31;;;-10.08;100.00
55932;BME280;41837;55.700;37.984;2023-02-19T05:23:36;98451.41;;;-10.12;100.00
55932;BME280;41837;55.700;37.984;2023-02-19T05:26:14;98446.38;;;-10.12;100.00
55932;BME280;41837;55.700;37.984;2023-02-19T05:28:47;98448.91;;;-10.10;100.00
55932;BME280;41837;55.700;37.984;2023-02-19T05:31:14;98444.75;;;-10.08;100.00
55932;BME280;41837;55.700;37.984;2023-02-19T05:33:40;98438.97;;;-10.01;100.00
55932;BME280;41837;55.700;37.984;2023-02-19T05:36:10;98438.84;;;-10.09;100.00
55932;BME280;41837;55.700;37.984;2023-02-19T05:38:37;98438.03;;;-10.06;100.00
55932;BME280;41837;55.700;37.984;2023-02-19T05:41:12;98431.28;;;-10.07;100.00
55932;BME280;41837;55.700;37.984;2023-02-19T05:43:40;98433.06;;;-10.02;100.00
55932;BME280;41837;55.700;37.984;2023-02-19T05:46:07;98433.09;;;-10.00;100.00
55932;BME280;41837;55.700;37.984;2023-02-19T05:48:33;98442.38;;;-10.01;100.00
55932;BME280;41837;55.700;37.984;2023-02-19T05:51:04;98438.22;;;-9.97;100.00
55932;BME280;41837;55.700;37.984;2023-02-19T05:53:30;98431.63;;;-9.89;100.00
55932;BME280;41837;55.700;37.984;2023-02-19T05:55:56;98426.63;;;-9.83;100.00
55932;BME280;41837;55.700;37.984;2023-02-19T05:58:22;98434.19;;;-9.86;100.00
55932;BME280;41837;55.700;37.984;2023-02-19T06:00:49;98420.59;;;-9.92;100.00
55932;BME280;41837;55.700;37.984;2023-02-19T06:03:15;98431.63;;;-9.89;100.00
55932;BME280;41837;55.700;37.984;2023-02-19T06:05:42;98430.06;;;-9.81;100.00
55932;BME280;41837;55.700;37.984;2023-02-19T06:08:09;98423.53;;;-9.68;100.00
55932;BME280;41837;55.700;37.984;2023-02-19T06:10:37;98424.13;;;-9.81;100.00
55932;BME280;41837;55.700;37.984;2023-02-19T06:13:06;98405.78;;;-9.69;100.00
55932;BME280;41837;55.700;37.984;2023-02-19T06:15:33;98419.41;;;-9.61;100.00
55932;BME280;41837;55.700;37.984;2023-02-19T06:18:00;98426.16;;;-9.62;100.00
55932;BME280;41837;55.700;37.984;2023-02-19T06:20:27;98414.34;;;-9.61;100.00
55932;BME280;41837;55.700;37.984;2023-02-19T06:22:53;98412.59;;;-9.67;100.00
55932;BME280;41837;55.700;37.984;2023-02-19T06:25:19;98411.16;;;-9.49;100.00
55932;BME280;41837;55.700;37.984;2023-02-19T06:27:46;98409.44;;;-9.50;100.00
55932;BME280;41837;55.700;37.984;2023-02-19T06:30:12;98406.16;;;-9.46;100.00
55932;BME280;41837;55.700;37.984;2023-02-19T06:32:37;98413.75;;;-9.46;100.00
55932;BME280;41837;55.700;37.984;2023-02-19T06:35:04;98387.66;;;-9.42;100.00
55932;BME280;41837;55.700;37.984;2023-02-19T06:37:30;98405.41;;;-9.39;100.00
55932;BME280;41837;55.700;37.984;2023-02-19T06:39:56;98400.41;;;-9.36;100.00
55932;BME280;41837;55.700;37.984;2023-02-19T06:42:22;98398.84;;;-9.28;100.00
55932;BME280;41837;55.700;37.984;2023-02-19T06:44:48;98386.84;;;-9.40;100.00
55932;BME280;41837;55.700;37.984;2023-02-19T06:47:14;98397.38;;;-9.10;100.00
55932;BME280;41837;55.700;37.984;2023-02-19T06:49:41;98392.38;;;-9.06;100.00
55932;BME280;41837;55.700;37.984;2023-02-19T06:52:07;98377.75;;;-9.25;100.00
55932;BME280;41837;55.700;37.984;2023-02-19T06:54:33;98386.09;;;-9.34;100.00
55932;BME280;41837;55.700;37.984;2023-02-19T06:56:59;98381.94;;;-9.29;100.00
55932;BME280;41837;55.700;37.984;2023-02-19T06:59:26;98388.06;;;-9.11;100.00
55932;BME280;41837;55.700;37.984;2023-02-19T07:01:52;98383.00;;;-9.14;100.00
55932;BME280;41837;55.700;37.984;2023-02-19T07:04:17;98389.66;;;-9.21;100.00
55932;BME280;41837;55.700;37.984;2023-02-19T07:06:43;98377.88;;;-9.17;100.00
55932;BME280;41837;55.700;37.984;2023-02-19T07:09:10;98387.13;;;-9.21;100.00
55932;BME280;41837;55.700;37.984;2023-02-19T07:11:38;98388.22;;;-9.02;100.00
55932;BME280;41837;55.700;37.984;2023-02-19T07:14:06;98377.88;;;-9.17;100.00
55932;BME280;41837;55.700;37.984;2023-02-19T07:16:34;98379.56;;;-9.16;100.00
55932;BME280;41837;55.700;37.984;2023-02-19T07:19:01;98381.44;;;-9.03;100.00
55932;BME280;41837;55.700;37.984;2023-02-19T07:21:28;98375.81;;;-8.82;100.00
55932;BME280;41837;55.700;37.984;2023-02-19T07:23:55;98371.38;;;-8.98;100.00
55932;BME280;41837;55.700;37.984;2023-02-19T07:26:22;98372.31;;;-8.92;100.00
55932;BME280;41837;55.700;37.984;2023-02-19T07:28:49;98363.88;;;-8.92;100.00
55932;BME280;41837;55.700;37.984;2023-02-19T07:31:17;98366.66;;;-8.68;100.00
55932;BME280;41837;55.700;37.984;2023-02-19T07:33:44;98365.91;;;-8.59;100.00
55932;BME280;41837;55.700;37.984;2023-02-19T07:36:11;98364.72;;;-8.92;100.00
55932;BME280;41837;55.700;37.984;2023-02-19T07:38:37;98366.41;;;-8.89;100.00
55932;BME280;41837;55.700;37.984;2023-02-19T07:41:04;98368.91;;;-8.94;100.00
55932;BME280;41837;55.700;37.984;2023-02-19T07:43:33;98358.75;;;-8.95;100.00
55932;BME280;41837;55.700;37.984;2023-02-19T07:46:08;98357.34;;;-8.73;100.00
55932;BME280;41837;55.700;37.984;2023-02-19T07:48:36;98357.19;;;-8.86;100.00
55932;BME280;41837;55.700;37.984;2023-02-19T07:51:03;98364.88;;;-8.76;100.00
55932;BME280;41837;55.700;37.984;2023-02-19T07:53:31;98349.66;;;-8.79;100.00
55932;BME280;41837;55.700;37.984;2023-02-19T07:55:59;98347.13;;;-8.78;100.00
55932;BME280;41837;55.700;37.984;2023-02-19T07:58:27;98339.44;;;-8.87;100.00
55932;BME280;41837;55.700;37.984;2023-02-19T08:00:53;98346.13;;;-8.92;100.00
55932;BME280;41837;55.700;37.984;2023-02-19T08:03:18;98343.81;;;-8.75;100.00
55932;BME280;41837;55.700;37.984;2023-02-19T08:05:45;98340.41;;;-8.76;100.00
55932;BME280;41837;55.700;37.984;2023-02-19T08:08:13;98341.59;;;-8.38;100.00
55932;BME280;41837;55.700;37.984;2023-02-19T08:10:40;98342.25;;;-8.63;100.00
55932;BME280;41837;55.700;37.984;2023-02-19T08:13:27;98336.06;;;-8.86;100.00
55932;BME280;41837;55.700;37.984;2023-02-19T08:16:08;98319.94;;;-8.93;100.00
55932;BME280;41837;55.700;37.984;2023-02-19T08:18:34;98330.25;;;-8.80;100.00
55932;BME280;41837;55.700;37.984;2023-02-19T08:21:00;98335.31;;;-8.77;100.00
55932;BME280;41837;55.700;37.984;2023-02-19T08:23:27;98335.34;;;-8.76;100.00
55932;BME280;41837;55.700;37.984;2023-02-19T08:25:59;98336.19;;;-8.77;100.00
55932;BME280;41837;55.700;37.984;2023-02-19T08:28:26;98330.53;;;-8.51;100.00
55932;BME280;41837;55.700;37.984;2023-02-19T08:30:52;98330.88;;;-8.98;100.00
55932;BME280;41837;55.700;37.984;2023-02-19T08:33:19;98328.41;;;-8.92;100.00
55932;BME280;41837;55.700;37.984;2023-02-19T08:35:46;98325.09;;;-8.87;100.00
55932;BME280;41837;55.700;37.984;2023-02-19T08:38:14;98330.06;;;-8.94;100.00
55932;BME280;41837;55.700;37.984;2023-02-19T08:40:43;98324.19;;;-8.92;100.00
55932;BME280;41837;55.700;37.984;2023-02-19T08:43:11;98324.53;;;-8.61;100.00
55932;BME280;41837;55.700;37.984;2023-02-19T08:45:39;98328.81;;;-8.57;100.00
55932;BME280;41837;55.700;37.984;2023-02-19T08:48:05;98328.06;;;-8.42;100.00
55932;BME280;41837;55.700;37.984;2023-02-19T08:50:32;98313.44;;;-8.74;100.00
55932;BME280;41837;55.700;37.984;2023-02-19T08:52:59;98317.78;;;-8.62;100.00
55932;BME280;41837;55.700;37.984;2023-02-19T08:55:25;98316.81;;;-8.73;100.00
55932;BME280;41837;55.700;37.984;2023-02-19T08:57:52;98315.09;;;-8.74;100.00
55932;BME280;41837;55.700;37.984;2023-02-19T09:00:18;98314.28;;;-8.73;100.00
55932;BME280;41837;55.700;37.984;2023-02-19T09:02:44;98299.94;;;-8.70;100.00
55932;BME280;41837;55.700;37.984;2023-02-19T09:05:11;98313.72;;;-8.45;100.00
55932;BME280;41837;55.700;37.984;2023-02-19T09:07:39;98295.88;;;-8.57;100.00
55932;BME280;41837;55.700;37.984;2023-02-19T09:10:06;98299.38;;;-8.42;100.00
55932;BME280;41837;55.700;37.984;2023-02-19T09:12:32;98307.72;;;-8.53;100.00
55932;BME280;41837;55.700;37.984;2023-02-19T09:14:59;98311.78;;;-8.69;100.00
55932;BME280;41837;55.700;37.984;2023-02-19T09:17:26;98306.66;;;-8.73;100.00
55932;BME280;41837;55.700;37.984;2023-02-19T09:19:52;98305.00;;;-8.70;100.00
55932;BME280;41837;55.700;37.984;2023-02-19T09:22:18;98300.75;;;-8.72;100.00
55932;BME280;41837;55.700;37.984;2023-02-19T09:24:45;98282.34;;;-8.56;100.00
55932;BME280;41837;55.700;37.984;2023-02-19T09:27:18;98291.56;;;-8.63;100.00
55932;BME280;41837;55.700;37.984;2023-02-19T09:29:45;98288.28;;;-8.54;100.00
55932;BME280;41837;55.700;37.984;2023-02-19T09:32:11;98290.94;;;-8.43;100.00
55932;BME280;41837;55.700;37.984;2023-02-19T09:34:38;98282.69;;;-8.16;100.00
55932;BME280;41837;55.700;37.984;2023-02-19T09:37:07;98273.19;;;-8.37;100.00
55932;BME280;41837;55.700;37.984;2023-02-19T09:39:34;98278.25;;;-8.40;100.00
55932;BME280;41837;55.700;37.984;2023-02-19T09:42:00;98272.31;;;-8.47;100.00
55932;BME280;41837;55.700;37.984;2023-02-19T09:44:31;98269.72;;;-8.51;100.00
55932;BME280;41837;55.700;37.984;2023-02-19T09:46:59;98278.84;;;-8.67;100.00
55932;BME280;41837;55.700;37.984;2023-02-19T09:49:32;98263.72;;;-8.61;100.00
55932;BME280;41837;55.700;37.984;2023-02-19T09:52:06;98259.53;;;-8.56;100.00
55932;BME280;41837;55.700;37.984;2023-02-19T09:54:35;98265.28;;;-8.72;100.00
55932;BME280;41837;55.700;37.984;2023-02-19T09:57:03;98259.34;;;-8.79;100.00
55932;BME280;41837;55.700;37.984;2023-02-19T09:59:40;98263.69;;;-8.64;100.00
55932;BME280;41837;55.700;37.984;2023-02-19T10:02:14;98253.50;;;-8.72;100.00
55932;BME280;41837;55.700;37.984;2023-02-19T10:04:42;98251.84;;;-8.68;100.00
55932;BME280;41837;55.700;37.984;2023-02-19T10:07:13;98254.50;;;-8.54;100.00
55932;BME280;41837;55.700;37.984;2023-02-19T10:09:40;98243.47;;;-8.58;100.00
55932;BME280;41837;55.700;37.984;2023-02-19T10:12:23;98248.44;;;-8.67;100.00
55932;BME280;41837;55.700;37.984;2023-02-19T10:14:51;98251.22;;;-8.42;100.00
55932;BME280;41837;55.700;37.984;2023-02-19T10:17:30;98256.88;;;-8.71;100.00
55932;BME280;41837;55.700;37.984;2023-02-19T10:19:57;98248.47;;;-8.66;100.00
55932;BME280;41837;55.700;37.984;2023-02-19T10:22:23;98251.91;;;-8.59;100.00
55932;BME280;41837;55.700;37.984;2023-02-19T10:24:54;98249.34;;;-8.60;100.00
55932;BME280;41837;55.700;37.984;2023-02-19T10:27:20;98235.00;;;-8.61;100.00
55932;BME280;41837;55.700;37.984;2023-02-19T10:29:48;98242.63;;;-8.61;100.00
55932;BME280;41837;55.700;37.984;2023-02-19T10:32:17;98244.94;;;-8.83;100.00
55932;BME280;41837;55.700;37.984;2023-02-19T10:34:46;98251.25;;;-8.35;100.00
55932;BME280;41837;55.700;37.984;2023-02-19T10:37:15;98248.69;;;-8.42;100.00
55932;BME280;41837;55.700;37.984;2023-02-19T10:39:48;98242.72;;;-8.49;100.00
55932;BME280;41837;55.700;37.984;2023-02-19T10:42:18;98256.03;;;-8.70;100.00
55932;BME280;41837;55.700;37.984;2023-02-19T10:44:47;98245.38;;;-8.29;100.00
55932;BME280;41837;55.700;37.984;2023-02-19T10:47:17;98246.97;;;-8.44;100.00
55932;BME280;41837;55.700;37.984;2023-02-19T10:49:44;98245.19;;;-8.54;100.00
55932;BME280;41837;55.700;37.984;2023-02-19T10:52:29;98267.28;;;-8.37;100.00
55932;BME280;41837;55.700;37.984;2023-02-19T10:55:19;98246.06;;;-8.53;100.00
55932;BME280;41837;55.700;37.984;2023-02-19T10:57:49;98246.06;;;-8.55;100.00
55932;BME280;41837;55.700;37.984;2023-02-19T11:02:42;98245.28;;;-8.41;100.00
55932;BME280;41837;55.700;37.984;2023-02-19T11:07:38;98229.34;;;-8.27;100.00
55932;BME280;41837;55.700;37.984;2023-02-19T11:10:29;98244.59;;;-8.20;100.00
55932;BME280;41837;55.700;37.984;2023-02-19T11:13:02;98236.84;;;-8.47;100.00
55932;BME280;41837;55.700;37.984;2023-02-19T11:15:34;98229.47;;;-8.10;100.00
55932;BME280;41837;55.700;37.984;2023-02-19T11:20:44;98230.47;;;-7.86;100.00
55932;BME280;41837;55.700;37.984;2023-02-19T11:23:18;98235.16;;;-8.40;100.00
55932;BME280;41837;55.700;37.984;2023-02-19T11:25:51;98228.66;;;-8.07;100.00
55932;BME280;41837;55.700;37.984;2023-02-19T11:28:27;98240.28;;;-8.34;100.00
55932;BME280;41837;55.700;37.984;2023-02-19T11:33:44;98226.03;;;-8.18;100.00
55932;BME280;41837;55.700;37.984;2023-02-19T11:36:35;98223.59;;;-7.99;100.00
55932;BME280;41837;55.700;37.984;2023-02-19T11:39:19;98227.13;;;-7.76;100.00
55932;BME280;41837;55.700;37.984;2023-02-19T11:57:37;98213.56;;;-7.89;100.00
55932;BME280;41837;55.700;37.984;2023-02-19T12:00:28;98208.50;;;-7.79;100.00
55932;BME280;41837;55.700;37.984;2023-02-19T12:03:16;98215.28;;;-7.78;100.00
55932;BME280;41837;55.700;37.984;2023-02-19T12:06:17;98210.41;;;-7.34;100.00
55932;BME280;41837;55.700;37.984;2023-02-19T12:11:34;98200.22;;;-7.44;100.00
55932;BME280;41837;55.700;37.984;2023-02-19T12:17:03;98209.50;;;-7.50;100.00
55932;BME280;41837;55.700;37.984;2023-02-19T12:23:06;98212.69;;;-7.92;100.00
55932;BME280;41837;55.700;37.984;2023-02-19T12:30:52;98204.97;;;-8.11;100.00
55932;BME280;41837;55.700;37.984;2023-02-19T12:38:46;98193.84;;;-8.30;100.00
55932;BME280;41837;55.700;37.984;2023-02-19T12:41:20;98202.31;;;-8.26;100.00
55932;BME280;41837;55.700;37.984;2023-02-19T12:43:57;98209.94;;;-8.21;100.00
55932;BME280;41837;55.700;37.984;2023-02-19T12:46:30;98193.88;;;-8.22;100.00
55932;BME280;41837;55.700;37.984;2023-02-19T12:49:15;98194.75;;;-8.17;100.00
55932;BME280;41837;55.700;37.984;2023-02-19T12:51:47;98201.59;;;-8.05;100.00
55932;BME280;41837;55.700;37.984;2023-02-19T12:54:34;98203.28;;;-8.09;100.00
55932;BME280;41837;55.700;37.984;2023-02-19T12:57:14;98213.47;;;-7.99;100.00
55932;BME280;41837;55.700;37.984;2023-02-19T12:59:54;98201.44;;;-8.31;100.00
55932;BME280;41837;55.700;37.984;2023-02-19T13:02:32;98206.63;;;-8.14;100.00
55932;BME280;41837;55.700;37.984;2023-02-19T13:05:12;98222.66;;;-8.17;100.00
55932;BME280;41837;55.700;37.984;2023-02-19T13:08:01;98221.84;;;-8.16;100.00
55932;BME280;41837;55.700;37.984;2023-02-19T13:10:30;98218.44;;;-8.15;100.00
55932;BME280;41837;55.700;37.984;2023-02-19T13:13:03;98225.16;;;-8.21;100.00
55932;BME280;41837;55.700;37.984;2023-02-19T13:15:38;98221.88;;;-8.08;100.00
55932;BME280;41837;55.700;37.984;2023-02-19T13:18:18;98210.81;;;-8.21;100.00
55932;BME280;41837;55.700;37.984;2023-02-19T13:20:46;98203.22;;;-8.16;100.00
55932;BME280;41837;55.700;37.984;2023-02-19T13:23:25;98209.97;;;-8.17;100.00
55932;BME280;41837;55.700;37.984;2023-02-19T13:35:01;98215.03;;;-8.20;100.00
55932;BME280;41837;55.700;37.984;2023-02-19T13:37:35;98213.25;;;-8.30;100.00
55932;BME280;41837;55.700;37.984;2023-02-19T13:42:55;98210.69;;;-8.36;100.00
55932;BME280;41837;55.700;37.984;2023-02-19T13:45:30;98208.94;;;-8.42;100.00
55932;BME280;41837;55.700;37.984;2023-02-19T13:48:01;98214.16;;;-8.23;100.00
55932;BME280;41837;55.700;37.984;2023-02-19T13:50:37;98218.28;;;-8.39;100.00
55932;BME280;41837;55.700;37.984;2023-02-19T13:59:23;98206.31;;;-8.59;100.00
55932;BME280;41837;55.700;37.984;2023-02-19T14:04:29;98207.19;;;-8.54;100.00
55932;BME280;41837;55.700;37.984;2023-02-19T14:19:52;98193.63;;;-8.60;100.00
55932;BME280;41837;55.700;37.984;2023-02-19T14:28:29;98187.63;;;-8.73;100.00
55932;BME280;41837;55.700;37.984;2023-02-19T14:31:38;98177.47;;;-8.75;100.00
55932;BME280;41837;55.700;37.984;2023-02-19T14:34:25;98194.38;;;-8.74;100.00
55932;BME280;41837;55.700;37.984;2023-02-19T14:36:54;98169.78;;;-8.87;100.00
55932;BME280;41837;55.700;37.984;2023-02-19T14:39:28;98182.53;;;-8.76;100.00
55932;BME280;41837;55.700;37.984;2023-02-19T14:41:58;98189.25;;;-8.78;100.00
55932;BME280;41837;55.700;37.984;2023-02-19T14:44:31;98189.25;;;-8.78;100.00
55932;BME280;41837;55.700;37.984;2023-02-19T14:47:14;98189.22;;;-8.83;100.00
55932;BME280;41837;55.700;37.984;2023-02-19T14:49:54;98188.41;;;-8.80;100.00
55932;BME280;41837;55.700;37.984;2023-02-19T14:52:26;98187.50;;;-8.87;100.00
55932;BME280;41837;55.700;37.984;2023-02-19T14:55:05;98181.63;;;-8.82;100.00
55932;BME280;41837;55.700;37.984;2023-02-19T14:57:40;98181.63;;;-8.83;100.00